createdAt,value
2023-01-17T00:01:37.092Z,987.42
2023-01-17T00:03:37.097Z,987.45
2023-01-17T00:05:37.174Z,987.45
2023-01-17T00:07:37.075Z,987.45
2023-01-17T00:09:37.079Z,987.53
2023-01-17T00:11:37.095Z,987.53
2023-01-17T00:13:37.079Z,987.48
2023-01-17T00:15:37.157Z,987.48
2023-01-17T00:17:37.141Z,987.48
2023-01-17T00:19:37.176Z,987.58
2023-01-17T00:22:07.105Z,987.68
2023-01-17T00:24:07.147Z,987.68
2023-01-17T00:26:07.144Z,987.77
2023-01-17T00:28:07.102Z,987.91
2023-01-17T00:30:07.136Z,987.98
2023-01-17T00:32:07.080Z,988.00
2023-01-17T00:34:07.107Z,988.00
2023-01-17T00:36:07.106Z,988.09
2023-01-17T00:38:07.110Z,988.27
2023-01-17T00:40:07.098Z,988.23
2023-01-17T00:42:07.281Z,988.23
2023-01-17T00:44:07.108Z,988.23
2023-01-17T00:46:07.088Z,988.28
2023-01-17T00:48:07.136Z,988.30
2023-01-17T00:50:07.172Z,988.36
2023-01-17T00:52:07.123Z,988.41
2023-01-17T00:54:07.103Z,988.41
2023-01-17T00:56:07.199Z,988.53
2023-01-17T00:58:07.122Z,988.67
2023-01-17T01:02:07.278Z,988.66
2023-01-17T01:04:18.342Z,988.61
2023-01-17T01:06:18.320Z,988.68
2023-01-17T01:08:18.320Z,988.76
2023-01-17T01:10:18.315Z,988.81
2023-01-17T01:12:18.309Z,988.81
2023-01-17T01:14:18.325Z,988.86
2023-01-17T01:16:18.476Z,988.74
2023-01-17T01:18:18.410Z,988.80
2023-01-17T01:20:18.340Z,988.79
2023-01-17T01:22:18.303Z,988.79
2023-01-17T01:24:18.305Z,988.79
2023-01-17T01:26:18.296Z,988.86
2023-01-17T01:28:18.357Z,988.91
2023-01-17T01:30:18.338Z,988.91
2023-01-17T01:32:18.343Z,988.90
2023-01-17T01:34:18.435Z,988.83
2023-01-17T01:36:18.430Z,988.92
2023-01-17T01:38:18.317Z,988.92
2023-01-17T01:40:18.322Z,988.92
2023-01-17T01:42:18.311Z,988.92
2023-01-17T01:44:18.313Z,988.92
2023-01-17T01:46:18.323Z,988.97
2023-01-17T01:48:18.420Z,988.95
2023-01-17T01:50:18.325Z,988.95
2023-01-17T01:52:18.330Z,988.97
2023-01-17T01:54:18.347Z,988.98
2023-01-17T01:56:18.346Z,988.93
2023-01-17T01:58:18.299Z,988.93
2023-01-17T02:00:18.311Z,988.97
2023-01-17T02:02:18.334Z,988.97
2023-01-17T02:04:18.299Z,988.97
2023-01-17T02:06:18.347Z,989.06
2023-01-17T02:08:18.332Z,989.06
2023-01-17T02:10:18.330Z,989.06
2023-01-17T02:12:18.369Z,989.04
2023-01-17T02:14:18.313Z,989.05
2023-01-17T02:16:18.490Z,989.03
2023-01-17T02:18:18.364Z,989.03
2023-01-17T02:20:18.340Z,989.01
2023-01-17T02:22:18.341Z,989.00
2023-01-17T02:24:18.394Z,989.02
2023-01-17T02:26:18.343Z,989.02
2023-01-17T02:28:18.346Z,989.04
2023-01-17T02:30:18.481Z,988.94
2023-01-17T02:32:18.377Z,988.98
2023-01-17T02:34:18.334Z,989.00
2023-01-17T02:36:18.707Z,989.00
2023-01-17T02:38:18.361Z,989.03
2023-01-17T02:40:18.373Z,988.97
2023-01-17T02:42:18.365Z,988.95
2023-01-17T02:44:18.355Z,988.95
2023-01-17T02:46:48.354Z,988.95
2023-01-17T02:48:48.353Z,988.90
2023-01-17T02:50:48.364Z,988.90
2023-01-17T02:52:48.393Z,988.93
2023-01-17T02:54:48.377Z,988.93
2023-01-17T02:56:48.367Z,988.93
2023-01-17T02:58:48.464Z,988.93
2023-01-17T03:00:48.450Z,988.94
2023-01-17T03:02:48.398Z,988.94
2023-01-17T03:04:48.333Z,988.91
2023-01-17T03:06:48.347Z,988.92
2023-01-17T03:08:48.364Z,988.92
2023-01-17T03:10:48.379Z,988.97
2023-01-17T03:12:48.389Z,988.94
2023-01-17T03:14:48.457Z,988.95
2023-01-17T03:16:48.568Z,988.95
2023-01-17T03:18:48.346Z,988.95
2023-01-17T03:20:48.364Z,989.04
2023-01-17T03:22:48.343Z,989.06
2023-01-17T03:24:48.364Z,989.06
2023-01-17T03:26:48.377Z,989.06
2023-01-17T03:28:48.360Z,989.03
2023-01-17T03:30:48.389Z,989.04
2023-01-17T03:32:48.389Z,989.02
2023-01-17T03:34:48.385Z,989.00
2023-01-17T03:36:48.380Z,989.00
2023-01-17T03:38:48.354Z,989.01
2023-01-17T03:40:48.471Z,989.03
2023-01-17T03:42:48.464Z,989.08
2023-01-17T03:44:48.382Z,989.08
2023-01-17T03:46:48.356Z,989.08
2023-01-17T03:48:48.361Z,989.07
2023-01-17T03:50:48.379Z,989.10
2023-01-17T03:52:48.356Z,989.07
2023-01-17T03:54:48.431Z,989.06
2023-01-17T03:56:48.388Z,989.06
2023-01-17T03:58:48.408Z,989.08
2023-01-17T04:00:48.456Z,989.10
2023-01-17T04:02:48.442Z,989.08
2023-01-17T04:04:48.409Z,989.08
2023-01-17T04:06:48.417Z,989.08
2023-01-17T04:08:48.417Z,989.20
2023-01-17T04:10:48.368Z,989.19
2023-01-17T04:12:48.360Z,989.16
2023-01-17T04:14:48.373Z,989.16
2023-01-17T04:16:48.460Z,989.10
2023-01-17T04:18:48.382Z,989.08
2023-01-17T04:20:48.396Z,989.08
2023-01-17T04:22:48.392Z,989.05
2023-01-17T04:24:48.399Z,989.05
2023-01-17T04:26:48.403Z,989.04
2023-01-17T04:29:18.504Z,989.02
2023-01-17T04:31:18.528Z,988.97
2023-01-17T04:33:18.395Z,988.97
2023-01-17T04:35:18.401Z,988.94
2023-01-17T04:37:18.416Z,988.93
2023-01-17T04:39:18.433Z,988.90
2023-01-17T04:41:18.413Z,988.90
2023-01-17T04:43:18.414Z,988.90
2023-01-17T04:45:18.400Z,988.89
2023-01-17T04:47:18.372Z,988.89
2023-01-17T04:49:18.401Z,988.93
2023-01-17T04:51:18.450Z,988.96
2023-01-17T04:53:18.409Z,988.96
2023-01-17T04:55:18.605Z,988.98
2023-01-17T04:57:18.426Z,988.96
2023-01-17T04:59:18.499Z,988.93
2023-01-17T05:01:18.711Z,988.93
2023-01-17T05:03:18.420Z,989.01
2023-01-17T05:05:18.408Z,989.06
2023-01-17T05:07:18.530Z,989.20
2023-01-17T05:09:18.436Z,989.20
2023-01-17T05:11:18.395Z,989.20
2023-01-17T05:13:18.512Z,989.22
2023-01-17T05:15:18.421Z,989.23
2023-01-17T05:17:18.443Z,989.46
2023-01-17T05:19:21.288Z,989.57
2023-01-17T05:21:18.432Z,989.57
2023-01-17T05:23:18.474Z,989.60
2023-01-17T05:25:18.433Z,989.67
2023-01-17T05:27:18.419Z,989.67
2023-01-17T05:29:18.440Z,989.67
2023-01-17T05:31:18.452Z,989.57
2023-01-17T05:33:21.211Z,989.52
2023-01-17T05:35:18.462Z,989.50
2023-01-17T05:37:18.417Z,989.51
2023-01-17T05:39:18.521Z,989.51
2023-01-17T05:41:18.401Z,989.47
2023-01-17T05:43:19.771Z,989.47
2023-01-17T05:45:18.565Z,989.44
2023-01-17T05:47:18.445Z,989.43
2023-01-17T05:49:18.563Z,989.43
2023-01-17T05:51:18.406Z,989.42
2023-01-17T05:53:18.469Z,989.40
2023-01-17T05:55:18.462Z,989.32
2023-01-17T05:57:18.642Z,989.32
2023-01-17T05:59:25.588Z,989.32
2023-01-17T06:01:18.477Z,989.32
2023-01-17T06:03:18.434Z,989.30
2023-01-17T06:05:18.469Z,989.30
2023-01-17T06:07:18.505Z,989.30
2023-01-17T06:09:18.463Z,989.30
2023-01-17T06:11:48.427Z,989.24
2023-01-17T06:13:48.628Z,989.25
2023-01-17T06:15:48.471Z,989.30
2023-01-17T06:17:48.423Z,989.33
2023-01-17T06:19:48.456Z,989.34
2023-01-17T06:21:48.464Z,989.34
2023-01-17T06:23:48.452Z,989.31
2023-01-17T06:25:48.477Z,989.26
2023-01-17T06:27:48.506Z,989.24
2023-01-17T06:29:48.461Z,989.24
2023-01-17T06:31:48.454Z,989.24
2023-01-17T06:33:48.447Z,989.23
2023-01-17T06:35:48.483Z,989.16
2023-01-17T06:37:48.528Z,989.18
2023-01-17T06:39:48.491Z,989.18
2023-01-17T06:41:48.559Z,989.13
2023-01-17T06:43:48.554Z,989.10
2023-01-17T06:45:51.154Z,989.06
2023-01-17T06:47:48.459Z,989.06
2023-01-17T06:49:48.475Z,989.06
2023-01-17T06:51:48.445Z,989.03
2023-01-17T06:53:48.657Z,988.96
2023-01-17T06:55:48.474Z,988.98
2023-01-17T06:57:48.556Z,988.99
2023-01-17T06:59:48.520Z,988.99
2023-01-17T07:01:48.477Z,989.04
2023-01-17T07:03:48.545Z,989.09
2023-01-17T07:05:48.521Z,989.14
2023-01-17T07:07:48.473Z,989.14
2023-01-17T07:09:48.471Z,989.18
2023-01-17T07:11:51.212Z,989.22
2023-01-17T07:13:48.553Z,989.25
2023-01-17T07:15:48.521Z,989.26
2023-01-17T07:17:48.594Z,989.26
2023-01-17T07:19:48.509Z,989.17
2023-01-17T07:21:48.461Z,989.13
2023-01-17T07:23:48.452Z,989.15
2023-01-17T07:25:48.549Z,989.18
2023-01-17T07:27:48.461Z,989.18
2023-01-17T07:29:48.682Z,989.18
2023-01-17T07:31:48.550Z,989.11
2023-01-17T07:33:48.467Z,989.15
2023-01-17T07:35:48.497Z,989.15
2023-01-17T07:37:48.940Z,989.11
2023-01-17T07:39:48.548Z,989.05
2023-01-17T07:41:48.456Z,989.00
2023-01-17T07:43:48.459Z,989.03
2023-01-17T07:45:48.527Z,989.03
2023-01-17T07:47:48.496Z,988.96
2023-01-17T07:49:48.562Z,988.93
2023-01-17T07:51:48.533Z,988.93
2023-01-17T07:54:20.639Z,988.84
2023-01-17T07:56:18.536Z,988.84
2023-01-17T07:58:18.577Z,988.83
2023-01-17T07:59:59.456Z,988.77
2023-01-17T08:01:59.557Z,988.73
2023-01-17T08:03:59.447Z,988.73
2023-01-17T08:05:59.487Z,988.72
2023-01-17T08:07:59.438Z,988.72
2023-01-17T08:09:59.482Z,988.72
2023-01-17T08:11:59.475Z,988.72
2023-01-17T08:13:59.446Z,988.72
2023-01-17T08:15:59.853Z,988.66
2023-01-17T08:17:59.420Z,988.60
2023-01-17T08:19:59.487Z,988.57
2023-01-17T08:21:59.458Z,988.57
2023-01-17T08:23:59.443Z,988.57
2023-01-17T08:25:59.481Z,988.40
2023-01-17T08:27:59.466Z,988.38
2023-01-17T08:30:29.431Z,988.41
2023-01-17T08:32:29.467Z,988.41
2023-01-17T08:34:29.482Z,988.48
2023-01-17T08:36:29.509Z,988.57
2023-01-17T08:38:29.458Z,988.57
2023-01-17T08:40:29.437Z,988.69
2023-01-17T08:42:29.503Z,988.69
2023-01-17T08:44:29.495Z,988.76
2023-01-17T08:46:31.387Z,988.87
2023-01-17T08:48:29.488Z,988.95
2023-01-17T08:50:29.459Z,988.95
2023-01-17T08:52:29.574Z,988.95
2023-01-17T08:54:29.474Z,988.98
2023-01-17T08:56:29.570Z,988.98
2023-01-17T08:58:30.611Z,988.94
2023-01-17T09:00:29.493Z,988.94
2023-01-17T09:02:29.464Z,988.93
2023-01-17T09:04:29.537Z,988.97
2023-01-17T09:06:29.468Z,988.90
2023-01-17T09:08:29.451Z,988.88
2023-01-17T09:10:29.455Z,988.88
2023-01-17T09:12:29.496Z,988.87
2023-01-17T09:14:29.483Z,988.86
2023-01-17T09:16:29.535Z,988.86
2023-01-17T09:18:29.553Z,988.90
2023-01-17T09:20:29.499Z,988.90
2023-01-17T09:22:29.498Z,988.87
2023-01-17T09:24:29.514Z,988.86
2023-01-17T09:26:29.489Z,988.85
2023-01-17T09:28:29.477Z,988.83
2023-01-17T09:30:29.636Z,988.83
2023-01-17T09:32:29.512Z,988.83
2023-01-17T09:34:29.496Z,988.80
2023-01-17T09:36:29.503Z,988.80
2023-01-17T09:38:29.771Z,988.80
2023-01-17T09:40:29.465Z,988.76
2023-01-17T09:42:29.474Z,988.75
2023-01-17T09:44:29.481Z,988.73
2023-01-17T09:46:29.498Z,988.69
2023-01-17T09:48:29.517Z,988.69
2023-01-17T09:50:29.481Z,988.64
2023-01-17T09:52:29.479Z,988.61
2023-01-17T09:54:29.575Z,988.64
2023-01-17T09:56:29.556Z,988.65
2023-01-17T09:58:29.522Z,988.65
2023-01-17T10:00:29.534Z,988.61
2023-01-17T10:02:29.699Z,988.56
2023-01-17T10:04:29.489Z,988.47
2023-01-17T10:06:29.505Z,988.47
2023-01-17T10:08:30.195Z,988.40
2023-01-17T10:10:29.589Z,988.31
2023-01-17T10:12:59.511Z,988.31
2023-01-17T10:14:59.515Z,988.20
2023-01-17T10:17:00.009Z,988.15
2023-01-17T10:18:59.545Z,988.14
2023-01-17T10:20:59.491Z,988.14
2023-01-17T10:22:59.503Z,988.11
2023-01-17T10:24:59.533Z,988.06
2023-01-17T10:26:59.605Z,987.96
2023-01-17T10:28:59.521Z,987.94
2023-01-17T10:30:59.556Z,987.94
2023-01-17T10:32:59.485Z,987.96
2023-01-17T10:34:59.546Z,987.90
2023-01-17T10:36:59.559Z,987.83
2023-01-17T10:38:59.490Z,987.83
2023-01-17T10:40:59.572Z,987.78
2023-01-17T10:42:59.505Z,987.73
2023-01-17T10:44:59.505Z,987.74
2023-01-17T10:46:59.550Z,987.75
2023-01-17T10:48:59.514Z,987.75
2023-01-17T10:50:59.545Z,987.77
2023-01-17T10:52:59.544Z,987.77
2023-01-17T10:54:59.603Z,987.71
2023-01-17T10:56:59.537Z,987.72
2023-01-17T10:58:59.536Z,987.72
2023-01-17T11:00:59.567Z,987.76
2023-01-17T11:02:59.556Z,987.70
2023-01-17T11:04:59.553Z,987.60
2023-01-17T11:06:59.538Z,987.60
2023-01-17T11:08:59.523Z,987.55
2023-01-17T11:10:59.643Z,987.57
2023-01-17T11:12:59.545Z,987.53
2023-01-17T11:14:59.562Z,987.46
2023-01-17T11:16:59.545Z,987.46
2023-01-17T11:18:59.777Z,987.39
2023-01-17T11:20:59.570Z,987.39
2023-01-17T11:22:59.581Z,987.37
2023-01-17T11:24:59.618Z,987.37
2023-01-17T11:26:59.570Z,987.37
2023-01-17T11:28:59.574Z,987.38
2023-01-17T11:30:59.554Z,987.28
2023-01-17T11:32:59.582Z,987.28
2023-01-17T11:34:59.519Z,987.28
2023-01-17T11:36:59.592Z,987.31
2023-01-17T11:38:59.721Z,987.27
2023-01-17T11:40:59.551Z,987.20
2023-01-17T11:42:59.541Z,987.08
2023-01-17T11:44:59.575Z,987.08
2023-01-17T11:46:59.781Z,987.09
2023-01-17T11:48:59.614Z,987.09
2023-01-17T11:50:59.547Z,987.07
2023-01-17T11:52:59.559Z,987.00
2023-01-17T11:54:59.597Z,987.00
2023-01-17T11:56:59.587Z,986.86
2023-01-17T11:58:59.601Z,986.84
2023-01-17T12:00:59.656Z,986.69
2023-01-17T12:03:29.667Z,986.69
2023-01-17T12:05:29.566Z,986.68
2023-01-17T12:07:29.610Z,986.78
2023-01-17T12:09:29.568Z,986.83
2023-01-17T12:11:29.592Z,986.80
2023-01-17T12:13:29.627Z,986.80
2023-01-17T12:15:29.613Z,986.80
2023-01-17T12:17:29.564Z,986.76
2023-01-17T12:19:29.575Z,986.77
2023-01-17T12:21:29.580Z,986.73
2023-01-17T12:23:29.595Z,986.73
2023-01-17T12:25:29.577Z,986.71
2023-01-17T12:27:29.627Z,986.69
2023-01-17T12:29:29.581Z,986.78
2023-01-17T12:31:29.586Z,986.75
2023-01-17T12:33:29.623Z,986.75
2023-01-17T12:35:29.611Z,986.67
2023-01-17T12:37:29.646Z,986.60
2023-01-17T12:39:29.758Z,986.54
2023-01-17T12:41:29.577Z,986.54
2023-01-17T12:43:29.580Z,986.45
2023-01-17T12:45:29.588Z,986.47
2023-01-17T12:47:29.596Z,986.37
2023-01-17T12:49:29.612Z,986.39
2023-01-17T12:51:29.607Z,986.39
2023-01-17T12:53:29.755Z,986.27
2023-01-17T12:55:29.613Z,986.27
2023-01-17T12:57:29.725Z,986.17
2023-01-17T12:59:29.622Z,986.08
2023-01-17T13:01:29.734Z,986.08
2023-01-17T13:03:29.723Z,986.00
2023-01-17T13:05:29.663Z,985.95
2023-01-17T13:07:29.670Z,985.91
2023-01-17T13:09:29.770Z,985.91
2023-01-17T13:11:29.675Z,985.80
2023-01-17T13:13:29.601Z,985.78
2023-01-17T13:15:29.700Z,985.78
2023-01-17T13:17:29.726Z,985.79
2023-01-17T13:19:29.615Z,985.79
2023-01-17T13:21:29.680Z,985.77
2023-01-17T13:23:29.679Z,985.72
2023-01-17T13:25:29.691Z,985.67
2023-01-17T13:27:29.710Z,985.63
2023-01-17T13:29:29.817Z,985.63
2023-01-17T13:31:29.693Z,985.56
2023-01-17T13:33:29.850Z,985.52
2023-01-17T13:35:29.646Z,985.52
2023-01-17T13:37:29.717Z,985.52
2023-01-17T13:39:29.689Z,985.52
2023-01-17T13:41:29.686Z,985.50
2023-01-17T13:43:29.711Z,985.44
2023-01-17T13:45:29.874Z,985.39
2023-01-17T13:47:29.842Z,985.39
2023-01-17T13:49:59.672Z,985.34
2023-01-17T13:51:59.643Z,985.34
2023-01-17T13:53:59.633Z,985.29
2023-01-17T13:55:59.820Z,985.29
2023-01-17T13:57:59.741Z,985.30
2023-01-17T13:59:59.761Z,985.25
2023-01-17T14:01:59.699Z,985.25
2023-01-17T14:03:59.637Z,985.18
2023-01-17T14:05:59.656Z,985.15
2023-01-17T14:08:00.755Z,985.13
2023-01-17T14:09:59.914Z,985.13
2023-01-17T14:11:59.716Z,985.15
2023-01-17T14:13:59.838Z,985.15
2023-01-17T14:15:59.784Z,985.15
2023-01-17T14:17:59.715Z,985.24
2023-01-17T14:19:59.659Z,985.24
2023-01-17T14:22:00.542Z,985.29
2023-01-17T14:23:59.703Z,985.27
2023-01-17T14:25:59.751Z,985.27
2023-01-17T14:27:59.805Z,985.23
2023-01-17T14:29:59.778Z,985.23
2023-01-17T14:32:00.008Z,985.27
2023-01-17T14:34:01.310Z,985.29
2023-01-17T14:35:59.679Z,985.29
2023-01-17T14:37:59.774Z,985.29
2023-01-17T14:39:59.764Z,985.33
2023-01-17T14:41:59.799Z,985.28
2023-01-17T14:43:59.871Z,985.21
2023-01-17T14:45:59.916Z,985.21
2023-01-17T14:48:00.669Z,985.21
2023-01-17T14:52:03.128Z,985.29
2023-01-17T14:53:59.742Z,985.30
2023-01-17T14:55:59.807Z,985.30
2023-01-17T14:57:59.848Z,985.30
2023-01-17T15:02:07.719Z,985.18
2023-01-17T15:03:59.772Z,985.11
2023-01-17T15:05:59.763Z,985.11
2023-01-17T15:07:59.824Z,985.11
2023-01-17T15:11:58.261Z,985.04
2023-01-17T15:13:58.270Z,985.01
2023-01-17T15:15:58.279Z,985.01
2023-01-17T15:17:58.287Z,984.97
2023-01-17T15:19:58.197Z,984.95
2023-01-17T15:21:58.293Z,984.91
2023-01-17T15:23:58.200Z,984.91
2023-01-17T15:25:58.326Z,984.91
2023-01-17T15:27:58.227Z,984.94
2023-01-17T15:29:58.236Z,984.95
2023-01-17T15:32:28.283Z,984.93
2023-01-17T15:34:28.331Z,984.97
2023-01-17T15:36:28.390Z,984.97
2023-01-17T15:38:33.545Z,984.97
2023-01-17T15:40:28.326Z,984.99
2023-01-17T15:42:28.220Z,985.03
2023-01-17T15:44:33.423Z,985.03
2023-01-17T15:46:28.310Z,985.10
2023-01-17T15:48:28.359Z,985.10
2023-01-17T15:50:28.202Z,985.13
2023-01-17T15:52:28.342Z,985.17
2023-01-17T15:54:28.217Z,985.17
2023-01-17T15:56:28.246Z,985.20
2023-01-17T15:58:28.362Z,985.23
2023-01-17T16:00:28.292Z,985.23
2023-01-17T16:02:28.417Z,985.29
2023-01-17T16:04:28.396Z,985.29
2023-01-17T16:06:28.261Z,985.29
2023-01-17T16:08:28.220Z,985.29
2023-01-17T16:10:28.234Z,985.27
2023-01-17T16:12:28.344Z,985.27
2023-01-17T16:14:32.339Z,985.29
2023-01-17T16:16:28.377Z,985.29
2023-01-17T16:18:28.231Z,985.29
2023-01-17T16:20:28.218Z,985.27
2023-01-17T16:22:28.265Z,985.27
2023-01-17T16:24:28.213Z,985.22
2023-01-17T16:26:28.201Z,985.24
2023-01-17T16:28:28.363Z,985.22
2023-01-17T16:30:28.356Z,985.26
2023-01-17T16:32:28.311Z,985.26
2023-01-17T16:34:28.177Z,985.27
2023-01-17T16:36:28.240Z,985.21
2023-01-17T16:38:28.231Z,985.22
2023-01-17T16:40:28.230Z,985.22
2023-01-17T16:42:28.713Z,985.26
2023-01-17T16:44:28.386Z,985.26
2023-01-17T16:46:28.239Z,985.27
2023-01-17T16:48:28.233Z,985.30
2023-01-17T16:50:28.211Z,985.30
2023-01-17T16:52:28.339Z,985.36
2023-01-17T16:54:28.210Z,985.36
2023-01-17T16:56:28.263Z,985.32
2023-01-17T16:58:28.306Z,985.32
2023-01-17T17:00:28.213Z,985.32
2023-01-17T17:02:28.249Z,985.27
2023-01-17T17:04:28.287Z,985.26
2023-01-17T17:06:28.259Z,985.32
2023-01-17T17:08:28.249Z,985.32
2023-01-17T17:10:28.234Z,985.41
2023-01-17T17:12:28.315Z,985.40
2023-01-17T17:14:28.189Z,985.39
2023-01-17T17:16:28.235Z,985.37
2023-01-17T17:18:58.308Z,985.35
2023-01-17T17:20:58.393Z,985.36
2023-01-17T17:22:58.273Z,985.36
2023-01-17T17:24:58.247Z,985.36
2023-01-17T17:26:58.199Z,985.36
2023-01-17T17:28:58.311Z,985.41
2023-01-17T17:30:58.378Z,985.43
2023-01-17T17:32:58.347Z,985.43
2023-01-17T17:34:58.237Z,985.35
2023-01-17T17:36:58.245Z,985.38
2023-01-17T17:38:58.258Z,985.38
2023-01-17T17:40:58.272Z,985.38
2023-01-17T17:42:58.296Z,985.30
2023-01-17T17:44:58.321Z,985.30
2023-01-17T17:46:58.353Z,985.23
2023-01-17T17:48:58.311Z,985.21
2023-01-17T17:50:59.662Z,985.21
2023-01-17T17:52:58.248Z,985.21
2023-01-17T17:54:58.351Z,985.30
2023-01-17T17:56:58.292Z,985.29
2023-01-17T17:58:58.338Z,985.31
2023-01-17T18:00:58.268Z,985.31
2023-01-17T18:02:58.228Z,985.26
2023-01-17T18:04:58.376Z,985.26
2023-01-17T18:06:58.260Z,985.31
2023-01-17T18:08:58.259Z,985.31
2023-01-17T18:10:58.231Z,985.29
2023-01-17T18:12:58.321Z,985.34
2023-01-17T18:14:58.337Z,985.37
2023-01-17T18:16:58.350Z,985.38
2023-01-17T18:18:58.386Z,985.38
2023-01-17T18:20:58.265Z,985.38
2023-01-17T18:22:58.256Z,985.46
2023-01-17T18:24:58.266Z,985.47
2023-01-17T18:26:58.264Z,985.47
2023-01-17T18:28:58.342Z,985.47
2023-01-17T18:30:58.345Z,985.47
2023-01-17T18:32:58.269Z,985.45
2023-01-17T18:34:58.347Z,985.45
2023-01-17T18:36:58.280Z,985.43
2023-01-17T18:38:58.318Z,985.43
2023-01-17T18:40:58.496Z,985.41
2023-01-17T18:42:58.356Z,985.42
2023-01-17T18:44:58.386Z,985.40
2023-01-17T18:46:58.436Z,985.40
2023-01-17T18:48:58.268Z,985.45
2023-01-17T18:50:58.303Z,985.51
2023-01-17T18:52:58.320Z,985.51
2023-01-17T18:54:58.349Z,985.54
2023-01-17T18:56:58.356Z,985.54
2023-01-17T18:58:58.299Z,985.56
2023-01-17T19:00:58.583Z,985.56
2023-01-17T19:02:58.464Z,985.63
2023-01-17T19:05:28.367Z,985.63
2023-01-17T19:07:28.330Z,985.63
2023-01-17T19:09:28.300Z,985.65
2023-01-17T19:11:28.293Z,985.69
2023-01-17T19:13:28.372Z,985.74
2023-01-17T19:15:28.360Z,985.74
2023-01-17T19:17:28.372Z,985.74
2023-01-17T19:19:28.415Z,985.82
2023-01-17T19:21:28.308Z,985.85
2023-01-17T19:23:28.314Z,985.88
2023-01-17T19:25:28.343Z,985.88
2023-01-17T19:27:28.348Z,985.91
2023-01-17T19:29:28.357Z,985.96
2023-01-17T19:31:28.465Z,985.96
2023-01-17T19:33:28.273Z,985.96
2023-01-17T19:35:28.409Z,985.96
2023-01-17T19:37:28.359Z,986.12
2023-01-17T19:39:28.339Z,986.12
2023-01-17T19:41:28.566Z,986.12
2023-01-17T19:43:28.375Z,986.12
2023-01-17T19:45:28.373Z,986.13
2023-01-17T19:47:28.298Z,986.22
2023-01-17T19:49:28.313Z,986.21
2023-01-17T19:51:28.336Z,986.19
2023-01-17T19:53:28.375Z,986.19
2023-01-17T19:55:28.387Z,986.11
2023-01-17T19:57:28.413Z,986.13
2023-01-17T19:59:28.438Z,986.14
2023-01-17T20:01:28.492Z,986.13
2023-01-17T20:03:28.336Z,986.13
2023-01-17T20:05:28.293Z,986.10
2023-01-17T20:07:28.345Z,986.11
2023-01-17T20:09:28.373Z,986.11
2023-01-17T20:11:28.369Z,986.11
2023-01-17T20:13:28.374Z,986.11
2023-01-17T20:15:28.442Z,986.15
2023-01-17T20:17:28.405Z,986.15
2023-01-17T20:19:28.574Z,986.12
2023-01-17T20:21:28.312Z,986.12
2023-01-17T20:23:28.359Z,986.12
2023-01-17T20:25:28.394Z,986.10
2023-01-17T20:27:28.416Z,986.09
2023-01-17T20:29:28.407Z,986.08
2023-01-17T20:31:28.463Z,986.08
2023-01-17T20:33:28.407Z,986.04
2023-01-17T20:35:28.332Z,986.03
2023-01-17T20:37:28.317Z,986.03
2023-01-17T20:39:28.368Z,986.04
2023-01-17T20:41:28.347Z,986.04
2023-01-17T20:43:28.490Z,986.04
2023-01-17T20:45:28.591Z,985.97
2023-01-17T20:47:28.445Z,985.94
2023-01-17T20:49:28.447Z,985.94
2023-01-17T20:51:58.365Z,985.94
2023-01-17T20:53:58.373Z,985.94
2023-01-17T20:55:58.451Z,985.94
2023-01-17T20:57:58.659Z,986.00
2023-01-17T20:59:58.466Z,985.98
2023-01-17T21:01:58.598Z,985.98
2023-01-17T21:03:58.408Z,985.98
2023-01-17T21:05:58.373Z,986.00
2023-01-17T21:07:58.639Z,986.00
2023-01-17T21:09:58.395Z,986.00
2023-01-17T21:11:58.406Z,986.00
2023-01-17T21:13:58.447Z,986.00
2023-01-17T21:15:58.482Z,986.00
2023-01-17T21:17:58.585Z,986.00
2023-01-17T21:19:58.466Z,986.06
2023-01-17T21:21:58.362Z,986.06
2023-01-17T21:23:58.388Z,986.03
2023-01-17T21:25:58.433Z,986.08
2023-01-17T21:27:58.735Z,986.08
2023-01-17T21:29:58.528Z,986.08
2023-01-17T21:31:58.359Z,986.08
2023-01-17T21:33:58.487Z,986.08
2023-01-17T21:35:58.349Z,986.08
2023-01-17T21:37:58.968Z,986.08
2023-01-17T21:39:58.404Z,986.08
2023-01-17T21:41:58.471Z,986.08
2023-01-17T21:43:58.439Z,986.08
2023-01-17T21:45:58.457Z,986.08
2023-01-17T21:47:58.590Z,986.08
2023-01-17T21:49:58.611Z,986.08
2023-01-17T21:51:58.455Z,986.01
2023-01-17T21:53:58.395Z,986.02
2023-01-17T21:55:58.409Z,986.02
2023-01-17T21:57:58.796Z,986.02
2023-01-17T21:59:58.549Z,986.02
2023-01-17T22:01:58.451Z,985.95
2023-01-17T22:03:58.401Z,985.95
2023-01-17T22:05:58.357Z,985.99
2023-01-17T22:07:58.740Z,985.99
2023-01-17T22:09:58.480Z,985.99
2023-01-17T22:11:58.359Z,985.89
2023-01-17T22:13:59.314Z,985.89
2023-01-17T22:15:58.534Z,985.89
2023-01-17T22:17:58.691Z,985.89
2023-01-17T22:19:58.544Z,985.89
2023-01-17T22:21:58.497Z,985.89
2023-01-17T22:23:58.533Z,985.89
2023-01-17T22:25:58.473Z,986.09
2023-01-17T22:27:58.920Z,986.09
2023-01-17T22:29:58.503Z,986.10
2023-01-17T22:31:58.511Z,986.10
2023-01-17T22:35:58.505Z,986.03
2023-01-17T22:38:09.997Z,986.03
2023-01-17T22:40:09.875Z,986.03
2023-01-17T22:42:10.031Z,986.05
2023-01-17T22:44:10.953Z,986.08
2023-01-17T22:46:10.020Z,986.08
2023-01-17T22:48:09.914Z,986.03
2023-01-17T22:50:09.950Z,986.02
2023-01-17T22:52:09.961Z,986.02
2023-01-17T22:54:10.002Z,986.02
2023-01-17T22:56:09.903Z,986.02
2023-01-17T22:58:09.920Z,986.00
2023-01-17T23:00:09.930Z,985.95
2023-01-17T23:02:09.924Z,985.84
2023-01-17T23:04:09.940Z,985.84
2023-01-17T23:06:09.917Z,985.84
2023-01-17T23:08:09.931Z,985.86
2023-01-17T23:10:09.999Z,985.90
2023-01-17T23:12:09.912Z,985.80
2023-01-17T23:14:09.950Z,985.80
2023-01-17T23:16:09.958Z,985.78
2023-01-17T23:18:09.991Z,985.79
2023-01-17T23:20:41.029Z,985.77
2023-01-17T23:22:40.009Z,985.76
2023-01-17T23:24:39.944Z,985.74
2023-01-17T23:26:39.940Z,985.74
2023-01-17T23:28:39.924Z,985.74
2023-01-17T23:30:39.972Z,985.70
2023-01-17T23:32:39.968Z,985.68
2023-01-17T23:34:39.996Z,985.75
2023-01-17T23:36:39.919Z,985.88
2023-01-17T23:38:39.895Z,985.88
2023-01-17T23:40:39.957Z,985.81
2023-01-17T23:42:39.920Z,985.82
2023-01-17T23:44:39.946Z,985.82
2023-01-17T23:46:40.064Z,985.82
2023-01-17T23:48:42.938Z,985.81
2023-01-17T23:50:40.033Z,985.79
2023-01-17T23:52:40.000Z,985.79
2023-01-17T23:54:39.973Z,985.74
2023-01-17T23:56:40.020Z,985.74
2023-01-17T23:58:39.945Z,985.76
